Date,TemperatureHighF,TemperatureAvgF,TemperatureLowF,DewpointHighF,DewpointAvgF,DewpointLowF,HumidityHigh,HumidityAvg,HumidityLow,PressureMaxIn,PressureMinIn,WindSpeedMaxMPH,WindSpeedAvgMPH,GustSpeedMaxMPH,PrecipitationSumIn
2013-3-1,30,23,10,19,16,7,87,74,60,30.38,30.25,5,1,0,0.00
2013-3-2,29,18,-4,14,8,-8,89,67,46,30.39,30.19,7,0,9,0.00
2013-3-3,31,23,11,11,8,3,85,55,33,30.19,30.01,18,3,18,0.00
2013-3-4,27,25,24,22,16,5,92,69,45,30.06,29.97,23,5,23,0.00
2013-3-5,29,25,20,25,22,17,93,90,82,30.32,30.00,12,1,12,0.07
2013-3-6,28,18,3,19,13,0,94,83,65,30.44,30.31,10,0,10,0.13
2013-3-7,31,16,-4,19,9,-8,93,75,59,30.44,30.32,13,2,13,0.03
2013-3-8,38,24,16,28,19,13,92,83,68,30.35,30.09,11,1,11,0.12
2013-3-9,36,34,32,35,33,28,97,94,82,30.09,29.69,8,2,0,0.47
2013-3-10,34,32,28,33,28,23,97,85,79,29.98,29.79,14,4,0,0.00
2013-3-11,32,27,24,24,22,19,87,80,68,29.90,29.75,9,3,0,0.00
2013-3-12,29,24,19,19,15,11,88,71,50,30.19,29.82,12,3,0,0.00
2013-3-13,34,22,9,16,12,6,90,69,43,30.38,30.19,5,1,0,0.00
2013-3-14,39,29,22,29,24,16,93,81,65,30.25,30.00,6,1,0,0.12
2013-3-15,33,29,22,31,26,19,95,86,70,30.00,29.86,6,1,0,0.13
2013-3-16,23,18,11,19,11,1,90,74,58,30.26,29.93,11,2,0,0.07
2013-3-17,24,13,-6,14,3,-10,87,66,52,30.31,29.92,12,4,0,0.00
2013-3-18,28,22,12,27,16,6,94,80,67,29.90,29.58,14,5,0,0.00
2013-3-19,22,13,6,7,3,-3,78,64,50,30.20,29.79,14,5,0,0.00
2013-3-20,24,12,4,7,1,-4,70,61,46,30.22,30.11,9,3,0,0.01
2013-3-21,29,13,-6,11,4,-9,85,67,48,30.16,30.07,7,1,0,0.00
2013-3-22,36,20,-3,17,9,-6,89,67,42,30.12,30.06,6,1,0,0.01
2013-3-23,39,28,15,20,16,11,86,63,43,30.17,30.09,5,0,0,0.00
2013-3-24,33,30,27,23,21,19,74,70,64,30.10,29.99,9,1,0,0.00
2013-3-25,39,31,20,24,19,14,78,63,46,30.21,30.06,10,2,0,0.00
2013-3-26,40,34,29,24,21,19,72,60,44,30.28,30.20,5,1,0,0.00
2013-3-27,43,34,24,22,20,17,80,57,37,30.32,30.28,2,0,0,0.00
2013-3-28,45,32,15,22,19,13,93,62,36,30.34,30.27,6,0,0,0.00
2013-3-29,49,37,25,36,28,20,91,72,55,30.28,30.05,8,2,0,0.02
2013-3-30,51,42,36,42,38,32,97,84,65,30.04,29.80,13,2,0,0.48
2013-3-31,37,32,24,32,21,13,92,65,39,30.08,29.75,14,4,22,0.00